Airfield :
LOGIN :

Register | Disclaimer

   EN    FR    IT 

 










Legend :    VFR   Marginal VFR   IFR   Intensive IFR   Very Intensive IFR
Visi :
Ceiling :
>= 8 km
>= 3000ft
5 to 8 km
1000 to 3000 ft
1500m to 5 km
500 to 1000 ft
800 to 1500m
200 to 500 ft
< 800m
< 200 ft
Symbols :   Thunderstorms  Fog  Heavy snow  Heavy precipitations  Wind > 20 kt
SIGMETs :     Misc.  Thunderstorms  Icing  Turbulence  Mountain Waves  Volcanic Ashes






- Airport Elevation : 1325 ft
- IATA code : EBU


LFMH - St-Etienne Boutheon

CURRENT METAR :
  • 091430Z AUTO 31008KT 280V360 9999 OVC033 09/04 Q1015 TEMPO 34020G35KT 3000 SHRA BKN008 BKN015CB

EXPIRED METARs :
  • 091400Z AUTO 30013KT 9999 BKN035 BKN044 BKN052 09/03 Q1014 TEMPO 34020G35KT 3000 SHRA BKN008 BKN015CB
  • 091330Z AUTO 30014KT 270V330 9999 FEW019 BKN039 OVC080 08/04 Q1014 TEMPO 34020G35KT 3000 SHRA BKN008 BKN015CB
  • 091300Z AUTO 30008KT 250V360 9999 BKN034/// OVC043/// ///TCU 09/04 Q1014 TEMPO SHRA
  • 091230Z AUTO 27004KT 230V310 9999 -RA OVC033/// ///TCU 08/05 Q1014 TEMPO SHRA
  • 091200Z AUTO 24008KT 9999 FEW028 OVC035 08/04 Q1014 TEMPO 32012G25KT SHRA BKN025TCU

TAF TAF LFMH
Valid from the 09 at 15:00 until the 10 at 15:00 UTC


091400Z 0915/1015 32010KT 9999 BKN035
TEMPO 0915/0924 32012G25KT SHRA BKN025TCU
PROB40
TEMPO 0915/0921 34020G35KT 3000 SHRA BKN008 BKN015CB
BECMG 1002/1006 OVC008
BECMG 1010/1013 VRB02KT SCT012
ATIS : +33 4 77 36 17 51



MET'MAP, your aeronautical weather chart ! - Copyright ORBIFLY December 2007 - Disclaimer

ORBIFLY MET'MAP TEAM :

Programming & Development : Alexandra Zaïnal
Concept & original design : Baudouin d'Aumeries
Assistance for programming : Marc-Olivier Méhu
Technical & hardware support : Manuel Goepfert

Contact : metmap@orbifly.com




SOURCES & CREDITS :

   NOAA